sensor_id;sensor_type;location;lat;lon;timestamp;P1;durP1;ratioP1;P2;durP2;ratioP2
14316;SDS011;7242;50.858;6.586;2022-07-23T00:00:02;13.43;;;12.03;;
14316;SDS011;7242;50.858;6.586;2022-07-23T00:03:06;13.23;;;11.90;;
14316;SDS011;7242;50.858;6.586;2022-07-23T00:06:07;12.73;;;10.97;;
14316;SDS011;7242;50.858;6.586;2022-07-23T00:09:08;11.93;;;10.80;;
14316;SDS011;7242;50.858;6.586;2022-07-23T00:12:08;13.20;;;11.77;;
14316;SDS011;7242;50.858;6.586;2022-07-23T00:15:09;15.87;;;12.57;;
14316;SDS011;7242;50.858;6.586;2022-07-23T00:18:10;17.20;;;12.30;;
14316;SDS011;7242;50.858;6.586;2022-07-23T00:21:11;17.73;;;13.70;;
14316;SDS011;7242;50.858;6.586;2022-07-23T00:24:12;16.90;;;15.10;;
14316;SDS011;7242;50.858;6.586;2022-07-23T00:27:13;17.33;;;15.43;;
14316;SDS011;7242;50.858;6.586;2022-07-23T00:30:14;17.07;;;15.30;;
14316;SDS011;7242;50.858;6.586;2022-07-23T00:33:15;18.77;;;15.33;;
14316;SDS011;7242;50.858;6.586;2022-07-23T00:36:16;16.90;;;14.77;;
14316;SDS011;7242;50.858;6.586;2022-07-23T00:39:17;20.27;;;16.80;;
14316;SDS011;7242;50.858;6.586;2022-07-23T00:42:17;22.13;;;18.40;;
14316;SDS011;7242;50.858;6.586;2022-07-23T00:45:19;23.67;;;19.40;;
14316;SDS011;7242;50.858;6.586;2022-07-23T00:48:20;23.27;;;19.93;;
14316;SDS011;7242;50.858;6.586;2022-07-23T00:51:21;20.93;;;18.23;;
14316;SDS011;7242;50.858;6.586;2022-07-23T00:54:25;22.30;;;19.27;;
14316;SDS011;7242;50.858;6.586;2022-07-23T00:57:27;20.00;;;17.67;;
14316;SDS011;7242;50.858;6.586;2022-07-23T01:04:51;22.33;;;18.53;;
14316;SDS011;7242;50.858;6.586;2022-07-23T01:07:52;18.17;;;16.20;;
14316;SDS011;7242;50.858;6.586;2022-07-23T01:10:52;19.27;;;17.17;;
14316;SDS011;7242;50.858;6.586;2022-07-23T01:13:53;19.97;;;17.80;;
14316;SDS011;7242;50.858;6.586;2022-07-23T01:16:55;19.90;;;17.20;;
14316;SDS011;7242;50.858;6.586;2022-07-23T01:19:56;17.57;;;15.67;;
14316;SDS011;7242;50.858;6.586;2022-07-23T01:22:57;17.93;;;16.03;;
14316;SDS011;7242;50.858;6.586;2022-07-23T01:25:58;18.27;;;16.40;;
14316;SDS011;7242;50.858;6.586;2022-07-23T01:29:00;19.33;;;17.33;;
14316;SDS011;7242;50.858;6.586;2022-07-23T01:32:02;19.00;;;16.30;;
14316;SDS011;7242;50.858;6.586;2022-07-23T01:35:03;19.37;;;15.57;;
14316;SDS011;7242;50.858;6.586;2022-07-23T01:38:04;18.63;;;16.67;;
14316;SDS011;7242;50.858;6.586;2022-07-23T01:41:06;18.47;;;16.47;;
14316;SDS011;7242;50.858;6.586;2022-07-23T01:44:07;19.43;;;16.43;;
14316;SDS011;7242;50.858;6.586;2022-07-23T01:47:09;17.37;;;15.50;;
14316;SDS011;7242;50.858;6.586;2022-07-23T01:50:10;18.97;;;16.50;;
14316;SDS011;7242;50.858;6.586;2022-07-23T01:53:21;20.50;;;18.23;;
14316;SDS011;7242;50.858;6.586;2022-07-23T01:56:22;20.87;;;17.07;;
14316;SDS011;7242;50.858;6.586;2022-07-23T01:59:23;19.80;;;17.40;;
14316;SDS011;7242;50.858;6.586;2022-07-23T02:02:25;20.70;;;18.00;;
14316;SDS011;7242;50.858;6.586;2022-07-23T02:05:27;19.90;;;17.80;;
14316;SDS011;7242;50.858;6.586;2022-07-23T02:08:28;20.20;;;18.13;;
14316;SDS011;7242;50.858;6.586;2022-07-23T02:11:35;19.77;;;17.50;;
14316;SDS011;7242;50.858;6.586;2022-07-23T02:14:36;19.43;;;17.43;;
14316;SDS011;7242;50.858;6.586;2022-07-23T02:17:37;19.87;;;17.70;;
14316;SDS011;7242;50.858;6.586;2022-07-23T02:20:38;21.23;;;18.90;;
14316;SDS011;7242;50.858;6.586;2022-07-23T02:23:41;21.40;;;17.97;;
14316;SDS011;7242;50.858;6.586;2022-07-23T02:26:43;19.97;;;17.23;;
14316;SDS011;7242;50.858;6.586;2022-07-23T02:29:45;20.70;;;18.50;;
14316;SDS011;7242;50.858;6.586;2022-07-23T02:37:10;21.73;;;19.43;;
14316;SDS011;7242;50.858;6.586;2022-07-23T02:40:11;24.83;;;20.77;;
14316;SDS011;7242;50.858;6.586;2022-07-23T02:43:14;22.90;;;19.10;;
14316;SDS011;7242;50.858;6.586;2022-07-23T02:46:15;24.53;;;20.53;;
14316;SDS011;7242;50.858;6.586;2022-07-23T02:49:17;23.13;;;20.70;;
14316;SDS011;7242;50.858;6.586;2022-07-23T02:52:20;20.30;;;18.20;;
14316;SDS011;7242;50.858;6.586;2022-07-23T02:55:22;20.30;;;18.10;;
14316;SDS011;7242;50.858;6.586;2022-07-23T02:58:23;22.60;;;20.10;;
14316;SDS011;7242;50.858;6.586;2022-07-23T03:01:25;24.60;;;20.43;;
14316;SDS011;7242;50.858;6.586;2022-07-23T03:04:26;21.93;;;19.63;;
14316;SDS011;7242;50.858;6.586;2022-07-23T03:07:27;23.03;;;19.40;;
14316;SDS011;7242;50.858;6.586;2022-07-23T03:10:28;23.37;;;19.83;;
14316;SDS011;7242;50.858;6.586;2022-07-23T03:13:29;23.77;;;19.23;;
14316;SDS011;7242;50.858;6.586;2022-07-23T03:16:30;22.57;;;19.87;;
14316;SDS011;7242;50.858;6.586;2022-07-23T03:19:30;23.03;;;20.63;;
14316;SDS011;7242;50.858;6.586;2022-07-23T03:22:31;22.23;;;19.50;;
14316;SDS011;7242;50.858;6.586;2022-07-23T03:25:32;22.87;;;19.73;;
14316;SDS011;7242;50.858;6.586;2022-07-23T03:32:56;24.07;;;21.47;;
14316;SDS011;7242;50.858;6.586;2022-07-23T03:35:57;23.17;;;20.73;;
14316;SDS011;7242;50.858;6.586;2022-07-23T03:39:01;23.27;;;20.87;;
14316;SDS011;7242;50.858;6.586;2022-07-23T03:42:02;23.63;;;21.07;;
14316;SDS011;7242;50.858;6.586;2022-07-23T03:45:03;22.20;;;19.80;;
14316;SDS011;7242;50.858;6.586;2022-07-23T03:48:06;25.03;;;21.00;;
14316;SDS011;7242;50.858;6.586;2022-07-23T03:51:07;22.77;;;19.80;;
14316;SDS011;7242;50.858;6.586;2022-07-23T03:54:08;22.00;;;19.70;;
14316;SDS011;7242;50.858;6.586;2022-07-23T03:57:09;23.83;;;19.67;;
14316;SDS011;7242;50.858;6.586;2022-07-23T04:00:10;23.13;;;20.40;;
14316;SDS011;7242;50.858;6.586;2022-07-23T04:03:15;22.37;;;19.73;;
14316;SDS011;7242;50.858;6.586;2022-07-23T04:06:17;21.03;;;18.77;;
14316;SDS011;7242;50.858;6.586;2022-07-23T04:09:18;22.70;;;19.33;;
14316;SDS011;7242;50.858;6.586;2022-07-23T04:12:19;23.43;;;20.20;;
14316;SDS011;7242;50.858;6.586;2022-07-23T04:15:20;23.63;;;20.70;;
14316;SDS011;7242;50.858;6.586;2022-07-23T04:18:21;22.57;;;19.47;;
14316;SDS011;7242;50.858;6.586;2022-07-23T04:21:32;22.20;;;18.83;;
14316;SDS011;7242;50.858;6.586;2022-07-23T04:24:33;23.13;;;19.40;;
14316;SDS011;7242;50.858;6.586;2022-07-23T04:27:35;28.47;;;21.17;;
14316;SDS011;7242;50.858;6.586;2022-07-23T04:30:36;25.77;;;19.77;;
14316;SDS011;7242;50.858;6.586;2022-07-23T04:33:37;29.73;;;21.20;;
14316;SDS011;7242;50.858;6.586;2022-07-23T04:36:40;22.03;;;18.30;;
14316;SDS011;7242;50.858;6.586;2022-07-23T04:39:41;26.87;;;19.27;;
14316;SDS011;7242;50.858;6.586;2022-07-23T04:42:42;24.00;;;19.03;;
14316;SDS011;7242;50.858;6.586;2022-07-23T04:45:43;24.47;;;19.90;;
14316;SDS011;7242;50.858;6.586;2022-07-23T04:48:44;29.57;;;19.87;;
14316;SDS011;7242;50.858;6.586;2022-07-23T04:51:46;22.27;;;17.73;;
14316;SDS011;7242;50.858;6.586;2022-07-23T04:54:47;27.70;;;20.20;;
14316;SDS011;7242;50.858;6.586;2022-07-23T04:57:48;23.43;;;16.70;;
14316;SDS011;7242;50.858;6.586;2022-07-23T05:00:49;24.67;;;17.30;;
14316;SDS011;7242;50.858;6.586;2022-07-23T05:03:50;29.73;;;18.90;;
14316;SDS011;7242;50.858;6.586;2022-07-23T05:06:52;24.10;;;18.27;;
14316;SDS011;7242;50.858;6.586;2022-07-23T05:09:53;18.07;;;15.00;;
14316;SDS011;7242;50.858;6.586;2022-07-23T05:12:54;19.33;;;14.13;;
14316;SDS011;7242;50.858;6.586;2022-07-23T05:15:55;16.87;;;14.20;;
14316;SDS011;7242;50.858;6.586;2022-07-23T05:18:58;22.13;;;16.07;;
14316;SDS011;7242;50.858;6.586;2022-07-23T05:21:58;20.83;;;16.27;;
14316;SDS011;7242;50.858;6.586;2022-07-23T05:24:59;17.70;;;14.47;;
14316;SDS011;7242;50.858;6.586;2022-07-23T05:28:00;19.43;;;16.27;;
14316;SDS011;7242;50.858;6.586;2022-07-23T05:31:02;18.90;;;15.93;;
14316;SDS011;7242;50.858;6.586;2022-07-23T05:34:04;19.23;;;15.93;;
14316;SDS011;7242;50.858;6.586;2022-07-23T05:37:06;18.67;;;15.47;;
14316;SDS011;7242;50.858;6.586;2022-07-23T05:40:08;22.63;;;17.73;;
14316;SDS011;7242;50.858;6.586;2022-07-23T05:47:43;21.97;;;19.20;;
14316;SDS011;7242;50.858;6.586;2022-07-23T05:50:46;21.03;;;17.30;;
14316;SDS011;7242;50.858;6.586;2022-07-23T05:53:56;19.90;;;15.57;;
14316;SDS011;7242;50.858;6.586;2022-07-23T05:57:01;19.37;;;15.13;;
14316;SDS011;7242;50.858;6.586;2022-07-23T06:00:03;21.80;;;17.37;;
14316;SDS011;7242;50.858;6.586;2022-07-23T06:03:13;16.37;;;14.63;;
14316;SDS011;7242;50.858;6.586;2022-07-23T06:06:15;17.83;;;15.10;;
14316;SDS011;7242;50.858;6.586;2022-07-23T06:09:17;15.97;;;13.77;;
14316;SDS011;7242;50.858;6.586;2022-07-23T06:12:18;15.70;;;14.03;;
14316;SDS011;7242;50.858;6.586;2022-07-23T06:15:19;14.30;;;12.53;;
14316;SDS011;7242;50.858;6.586;2022-07-23T06:18:20;18.60;;;15.90;;
14316;SDS011;7242;50.858;6.586;2022-07-23T06:21:21;15.93;;;13.13;;
14316;SDS011;7242;50.858;6.586;2022-07-23T06:24:22;16.77;;;14.30;;
14316;SDS011;7242;50.858;6.586;2022-07-23T06:27:24;20.13;;;15.20;;
14316;SDS011;7242;50.858;6.586;2022-07-23T06:30:25;21.10;;;15.07;;
14316;SDS011;7242;50.858;6.586;2022-07-23T06:33:26;16.43;;;13.40;;
14316;SDS011;7242;50.858;6.586;2022-07-23T06:36:27;18.63;;;14.00;;
14316;SDS011;7242;50.858;6.586;2022-07-23T06:39:28;22.83;;;16.23;;
14316;SDS011;7242;50.858;6.586;2022-07-23T06:42:28;21.97;;;15.00;;
14316;SDS011;7242;50.858;6.586;2022-07-23T06:45:32;21.07;;;16.03;;
14316;SDS011;7242;50.858;6.586;2022-07-23T06:48:33;20.10;;;14.57;;
14316;SDS011;7242;50.858;6.586;2022-07-23T06:51:35;20.47;;;16.43;;
14316;SDS011;7242;50.858;6.586;2022-07-23T06:54:36;18.77;;;13.70;;
14316;SDS011;7242;50.858;6.586;2022-07-23T06:57:37;17.50;;;14.00;;
14316;SDS011;7242;50.858;6.586;2022-07-23T07:00:40;17.60;;;12.67;;
14316;SDS011;7242;50.858;6.586;2022-07-23T07:03:40;14.93;;;11.27;;
14316;SDS011;7242;50.858;6.586;2022-07-23T07:06:42;15.27;;;10.60;;
14316;SDS011;7242;50.858;6.586;2022-07-23T07:09:42;14.70;;;10.07;;
14316;SDS011;7242;50.858;6.586;2022-07-23T07:12:44;13.07;;;9.00;;
14316;SDS011;7242;50.858;6.586;2022-07-23T07:15:45;21.43;;;13.03;;
14316;SDS011;7242;50.858;6.586;2022-07-23T07:18:46;15.30;;;9.83;;
14316;SDS011;7242;50.858;6.586;2022-07-23T07:21:47;17.20;;;12.40;;
14316;SDS011;7242;50.858;6.586;2022-07-23T07:24:47;14.17;;;10.63;;
14316;SDS011;7242;50.858;6.586;2022-07-23T07:31:16;16.57;;;8.03;;
14316;SDS011;7242;50.858;6.586;2022-07-23T07:34:17;12.73;;;7.67;;
14316;SDS011;7242;50.858;6.586;2022-07-23T07:37:18;14.17;;;7.87;;
14316;SDS011;7242;50.858;6.586;2022-07-23T07:40:19;15.33;;;8.33;;
14316;SDS011;7242;50.858;6.586;2022-07-23T07:43:20;14.00;;;8.13;;
14316;SDS011;7242;50.858;6.586;2022-07-23T07:46:21;11.63;;;8.40;;
14316;SDS011;7242;50.858;6.586;2022-07-23T07:49:24;19.05;;;10.20;;
14316;SDS011;7242;50.858;6.586;2022-07-23T07:52:24;14.57;;;7.50;;
14316;SDS011;7242;50.858;6.586;2022-07-23T07:55:25;18.45;;;10.60;;
14316;SDS011;7242;50.858;6.586;2022-07-23T07:58:27;13.95;;;10.27;;
14316;SDS011;7242;50.858;6.586;2022-07-23T08:01:27;12.50;;;7.90;;
14316;SDS011;7242;50.858;6.586;2022-07-23T08:04:29;16.83;;;9.45;;
14316;SDS011;7242;50.858;6.586;2022-07-23T08:07:29;18.77;;;11.75;;
14316;SDS011;7242;50.858;6.586;2022-07-23T08:10:30;18.27;;;12.23;;
14316;SDS011;7242;50.858;6.586;2022-07-23T08:13:31;20.75;;;12.48;;
14316;SDS011;7242;50.858;6.586;2022-07-23T08:16:32;17.70;;;12.13;;
14316;SDS011;7242;50.858;6.586;2022-07-23T08:19:33;11.93;;;9.00;;
14316;SDS011;7242;50.858;6.586;2022-07-23T08:25:48;13.60;;;8.38;;
14316;SDS011;7242;50.858;6.586;2022-07-23T08:28:49;17.58;;;12.45;;
14316;SDS011;7242;50.858;6.586;2022-07-23T08:31:50;15.57;;;12.18;;
14316;SDS011;7242;50.858;6.586;2022-07-23T08:34:51;17.55;;;13.48;;
14316;SDS011;7242;50.858;6.586;2022-07-23T08:37:52;16.45;;;13.18;;
14316;SDS011;7242;50.858;6.586;2022-07-23T08:40:54;10.30;;;9.07;;
14316;SDS011;7242;50.858;6.586;2022-07-23T08:43:57;13.93;;;10.87;;
14316;SDS011;7242;50.858;6.586;2022-07-23T08:47:01;12.07;;;10.53;;
14316;SDS011;7242;50.858;6.586;2022-07-23T08:50:02;10.77;;;9.57;;
14316;SDS011;7242;50.858;6.586;2022-07-23T08:53:05;12.00;;;9.20;;
14316;SDS011;7242;50.858;6.586;2022-07-23T08:56:07;10.87;;;9.77;;
14316;SDS011;7242;50.858;6.586;2022-07-23T08:59:08;14.17;;;10.97;;
14316;SDS011;7242;50.858;6.586;2022-07-23T09:02:09;12.27;;;10.03;;
14316;SDS011;7242;50.858;6.586;2022-07-23T09:05:10;14.80;;;11.43;;
14316;SDS011;7242;50.858;6.586;2022-07-23T09:08:16;12.70;;;11.27;;
14316;SDS011;7242;50.858;6.586;2022-07-23T09:11:21;14.57;;;10.80;;
14316;SDS011;7242;50.858;6.586;2022-07-23T09:14:41;12.70;;;9.40;;
14316;SDS011;7242;50.858;6.586;2022-07-23T09:17:44;10.73;;;8.43;;
14316;SDS011;7242;50.858;6.586;2022-07-23T09:20:45;11.43;;;8.63;;
14316;SDS011;7242;50.858;6.586;2022-07-23T09:24:07;13.30;;;11.03;;
14316;SDS011;7242;50.858;6.586;2022-07-23T09:27:08;13.07;;;10.53;;
14316;SDS011;7242;50.858;6.586;2022-07-23T09:30:09;9.27;;;7.57;;
14316;SDS011;7242;50.858;6.586;2022-07-23T09:33:12;10.27;;;8.17;;
14316;SDS011;7242;50.858;6.586;2022-07-23T09:36:15;10.97;;;8.30;;
14316;SDS011;7242;50.858;6.586;2022-07-23T09:39:21;11.80;;;9.77;;
14316;SDS011;7242;50.858;6.586;2022-07-23T09:42:29;13.23;;;9.60;;
14316;SDS011;7242;50.858;6.586;2022-07-23T09:45:31;11.80;;;9.20;;
14316;SDS011;7242;50.858;6.586;2022-07-23T09:48:31;12.00;;;8.67;;
14316;SDS011;7242;50.858;6.586;2022-07-23T09:51:32;11.63;;;9.50;;
14316;SDS011;7242;50.858;6.586;2022-07-23T09:54:48;16.50;;;9.77;;
14316;SDS011;7242;50.858;6.586;2022-07-23T09:57:59;12.97;;;8.83;;
14316;SDS011;7242;50.858;6.586;2022-07-23T10:01:00;11.37;;;8.33;;
14316;SDS011;7242;50.858;6.586;2022-07-23T10:04:01;11.40;;;8.33;;
14316;SDS011;7242;50.858;6.586;2022-07-23T10:07:31;9.57;;;8.57;;
14316;SDS011;7242;50.858;6.586;2022-07-23T10:11:10;11.37;;;8.83;;
14316;SDS011;7242;50.858;6.586;2022-07-23T10:14:14;10.93;;;7.90;;
14316;SDS011;7242;50.858;6.586;2022-07-23T10:17:29;8.63;;;6.10;;
14316;SDS011;7242;50.858;6.586;2022-07-23T10:20:30;8.40;;;4.90;;
14316;SDS011;7242;50.858;6.586;2022-07-23T10:23:33;8.30;;;7.10;;
14316;SDS011;7242;50.858;6.586;2022-07-23T10:30:28;8.93;;;6.27;;
14316;SDS011;7242;50.858;6.586;2022-07-23T10:33:50;9.43;;;6.83;;
14316;SDS011;7242;50.858;6.586;2022-07-23T10:40:26;7.83;;;6.80;;
14316;SDS011;7242;50.858;6.586;2022-07-23T10:43:28;11.10;;;7.83;;
14316;SDS011;7242;50.858;6.586;2022-07-23T10:46:29;14.90;;;6.53;;
14316;SDS011;7242;50.858;6.586;2022-07-23T10:49:31;12.33;;;8.90;;
14316;SDS011;7242;50.858;6.586;2022-07-23T10:52:33;7.13;;;6.27;;
14316;SDS011;7242;50.858;6.586;2022-07-23T10:59:08;10.33;;;7.40;;
14316;SDS011;7242;50.858;6.586;2022-07-23T11:02:23;7.50;;;6.60;;
14316;SDS011;7242;50.858;6.586;2022-07-23T11:05:24;10.10;;;7.63;;
14316;SDS011;7242;50.858;6.586;2022-07-23T11:08:43;7.93;;;7.13;;
14316;SDS011;7242;50.858;6.586;2022-07-23T11:11:45;10.87;;;5.60;;
14316;SDS011;7242;50.858;6.586;2022-07-23T11:18:10;6.40;;;4.60;;
14316;SDS011;7242;50.858;6.586;2022-07-23T11:24:23;9.17;;;5.37;;
14316;SDS011;7242;50.858;6.586;2022-07-23T11:27:36;6.63;;;5.57;;
14316;SDS011;7242;50.858;6.586;2022-07-23T11:30:42;6.00;;;5.33;;
14316;SDS011;7242;50.858;6.586;2022-07-23T11:33:46;5.93;;;4.40;;
14316;SDS011;7242;50.858;6.586;2022-07-23T11:37:29;6.50;;;3.90;;
14316;SDS011;7242;50.858;6.586;2022-07-23T11:40:39;6.13;;;4.07;;
14316;SDS011;7242;50.858;6.586;2022-07-23T11:43:40;6.73;;;4.10;;
14316;SDS011;7242;50.858;6.586;2022-07-23T11:46:40;7.90;;;4.47;;
14316;SDS011;7242;50.858;6.586;2022-07-23T11:50:01;7.03;;;4.17;;
14316;SDS011;7242;50.858;6.586;2022-07-23T11:53:04;8.60;;;4.10;;
14316;SDS011;7242;50.858;6.586;2022-07-23T11:56:06;9.07;;;4.90;;
14316;SDS011;7242;50.858;6.586;2022-07-23T11:59:10;6.83;;;4.50;;
14316;SDS011;7242;50.858;6.586;2022-07-23T12:02:11;5.60;;;3.80;;
14316;SDS011;7242;50.858;6.586;2022-07-23T12:05:22;4.47;;;3.70;;
14316;SDS011;7242;50.858;6.586;2022-07-23T12:08:24;4.73;;;3.53;;
14316;SDS011;7242;50.858;6.586;2022-07-23T12:11:25;3.67;;;2.87;;
14316;SDS011;7242;50.858;6.586;2022-07-23T12:14:26;3.27;;;2.30;;
14316;SDS011;7242;50.858;6.586;2022-07-23T12:17:29;4.93;;;2.80;;
14316;SDS011;7242;50.858;6.586;2022-07-23T12:20:34;4.93;;;2.63;;
14316;SDS011;7242;50.858;6.586;2022-07-23T12:23:39;3.73;;;2.60;;
14316;SDS011;7242;50.858;6.586;2022-07-23T12:26:59;4.57;;;2.50;;
14316;SDS011;7242;50.858;6.586;2022-07-23T12:33:24;3.63;;;3.10;;
14316;SDS011;7242;50.858;6.586;2022-07-23T12:36:36;4.73;;;2.80;;
14316;SDS011;7242;50.858;6.586;2022-07-23T12:39:39;3.30;;;2.47;;
14316;SDS011;7242;50.858;6.586;2022-07-23T12:42:41;3.63;;;2.17;;
14316;SDS011;7242;50.858;6.586;2022-07-23T12:45:50;3.80;;;2.80;;
14316;SDS011;7242;50.858;6.586;2022-07-23T12:48:52;4.47;;;2.70;;
14316;SDS011;7242;50.858;6.586;2022-07-23T12:51:54;3.27;;;2.90;;
14316;SDS011;7242;50.858;6.586;2022-07-23T12:54:54;3.97;;;2.33;;
14316;SDS011;7242;50.858;6.586;2022-07-23T12:58:05;4.20;;;3.07;;
14316;SDS011;7242;50.858;6.586;2022-07-23T13:01:08;6.23;;;3.07;;
14316;SDS011;7242;50.858;6.586;2022-07-23T13:04:14;3.50;;;2.60;;
14316;SDS011;7242;50.858;6.586;2022-07-23T13:07:18;4.93;;;2.50;;
14316;SDS011;7242;50.858;6.586;2022-07-23T13:10:19;3.30;;;2.53;;
14316;SDS011;7242;50.858;6.586;2022-07-23T13:13:24;4.50;;;3.10;;
14316;SDS011;7242;50.858;6.586;2022-07-23T13:16:28;3.90;;;2.87;;
14316;SDS011;7242;50.858;6.586;2022-07-23T13:19:29;4.07;;;2.70;;
14316;SDS011;7242;50.858;6.586;2022-07-23T13:22:30;4.07;;;2.60;;
14316;SDS011;7242;50.858;6.586;2022-07-23T13:25:31;5.17;;;2.40;;
14316;SDS011;7242;50.858;6.586;2022-07-23T13:28:31;3.80;;;2.70;;
14316;SDS011;7242;50.858;6.586;2022-07-23T13:31:32;6.03;;;3.20;;
14316;SDS011;7242;50.858;6.586;2022-07-23T13:34:33;2.53;;;2.20;;
14316;SDS011;7242;50.858;6.586;2022-07-23T13:37:35;3.47;;;2.20;;
14316;SDS011;7242;50.858;6.586;2022-07-23T13:40:37;2.67;;;2.00;;
14316;SDS011;7242;50.858;6.586;2022-07-23T13:43:39;5.30;;;2.67;;
14316;SDS011;7242;50.858;6.586;2022-07-23T13:46:40;2.23;;;2.03;;
14316;SDS011;7242;50.858;6.586;2022-07-23T13:49:41;3.30;;;2.37;;
14316;SDS011;7242;50.858;6.586;2022-07-23T13:52:42;3.90;;;2.50;;
14316;SDS011;7242;50.858;6.586;2022-07-23T13:55:43;3.13;;;2.30;;
14316;SDS011;7242;50.858;6.586;2022-07-23T13:58:45;3.77;;;2.10;;
14316;SDS011;7242;50.858;6.586;2022-07-23T14:01:46;3.33;;;2.40;;
14316;SDS011;7242;50.858;6.586;2022-07-23T14:04:47;3.57;;;2.30;;
14316;SDS011;7242;50.858;6.586;2022-07-23T14:07:49;3.27;;;2.30;;
14316;SDS011;7242;50.858;6.586;2022-07-23T14:10:51;3.53;;;2.30;;
14316;SDS011;7242;50.858;6.586;2022-07-23T14:13:52;2.43;;;2.10;;
14316;SDS011;7242;50.858;6.586;2022-07-23T14:16:53;4.63;;;2.20;;
14316;SDS011;7242;50.858;6.586;2022-07-23T14:19:54;3.17;;;2.30;;
14316;SDS011;7242;50.858;6.586;2022-07-23T14:22:54;3.40;;;2.20;;
14316;SDS011;7242;50.858;6.586;2022-07-23T14:25:57;2.30;;;2.00;;
14316;SDS011;7242;50.858;6.586;2022-07-23T14:28:57;2.43;;;2.10;;
14316;SDS011;7242;50.858;6.586;2022-07-23T14:31:58;2.90;;;2.23;;
14316;SDS011;7242;50.858;6.586;2022-07-23T14:35:00;3.37;;;2.30;;
14316;SDS011;7242;50.858;6.586;2022-07-23T14:38:00;3.63;;;2.27;;
14316;SDS011;7242;50.858;6.586;2022-07-23T14:41:01;3.30;;;2.20;;
14316;SDS011;7242;50.858;6.586;2022-07-23T14:44:06;4.30;;;2.10;;
14316;SDS011;7242;50.858;6.586;2022-07-23T14:47:07;2.30;;;2.10;;
14316;SDS011;7242;50.858;6.586;2022-07-23T14:50:08;3.17;;;2.40;;
14316;SDS011;7242;50.858;6.586;2022-07-23T14:53:09;2.20;;;2.00;;
14316;SDS011;7242;50.858;6.586;2022-07-23T14:56:10;3.03;;;2.00;;
14316;SDS011;7242;50.858;6.586;2022-07-23T14:59:11;3.17;;;2.00;;
14316;SDS011;7242;50.858;6.586;2022-07-23T15:02:11;3.47;;;2.07;;
14316;SDS011;7242;50.858;6.586;2022-07-23T15:05:12;2.97;;;2.10;;
14316;SDS011;7242;50.858;6.586;2022-07-23T15:08:14;3.83;;;2.13;;
14316;SDS011;7242;50.858;6.586;2022-07-23T15:11:15;6.37;;;2.60;;
14316;SDS011;7242;50.858;6.586;2022-07-23T15:14:16;3.73;;;2.37;;
14316;SDS011;7242;50.858;6.586;2022-07-23T15:17:17;3.03;;;2.33;;
14316;SDS011;7242;50.858;6.586;2022-07-23T15:20:17;2.73;;;2.17;;
14316;SDS011;7242;50.858;6.586;2022-07-23T15:23:18;4.07;;;2.37;;
14316;SDS011;7242;50.858;6.586;2022-07-23T15:26:20;4.33;;;1.80;;
14316;SDS011;7242;50.858;6.586;2022-07-23T15:29:23;4.10;;;2.10;;
14316;SDS011;7242;50.858;6.586;2022-07-23T15:32:24;3.27;;;2.40;;
14316;SDS011;7242;50.858;6.586;2022-07-23T15:35:26;3.10;;;2.00;;
14316;SDS011;7242;50.858;6.586;2022-07-23T15:38:27;3.07;;;2.40;;
14316;SDS011;7242;50.858;6.586;2022-07-23T15:41:28;3.83;;;2.10;;
14316;SDS011;7242;50.858;6.586;2022-07-23T15:44:29;2.37;;;2.00;;
14316;SDS011;7242;50.858;6.586;2022-07-23T15:47:30;2.97;;;2.10;;
14316;SDS011;7242;50.858;6.586;2022-07-23T15:50:31;3.13;;;2.27;;
14316;SDS011;7242;50.858;6.586;2022-07-23T15:53:32;2.53;;;2.00;;
14316;SDS011;7242;50.858;6.586;2022-07-23T15:56:34;3.00;;;2.07;;
14316;SDS011;7242;50.858;6.586;2022-07-23T15:59:35;3.47;;;2.10;;
14316;SDS011;7242;50.858;6.586;2022-07-23T16:02:36;2.90;;;2.10;;
14316;SDS011;7242;50.858;6.586;2022-07-23T16:05:36;3.70;;;2.37;;
14316;SDS011;7242;50.858;6.586;2022-07-23T16:08:37;2.53;;;2.03;;
14316;SDS011;7242;50.858;6.586;2022-07-23T16:11:38;2.57;;;2.30;;
14316;SDS011;7242;50.858;6.586;2022-07-23T16:14:40;2.20;;;2.00;;
14316;SDS011;7242;50.858;6.586;2022-07-23T16:17:41;3.23;;;2.30;;
14316;SDS011;7242;50.858;6.586;2022-07-23T16:20:42;2.37;;;2.17;;
14316;SDS011;7242;50.858;6.586;2022-07-23T16:23:43;2.70;;;2.30;;
14316;SDS011;7242;50.858;6.586;2022-07-23T16:26:44;3.40;;;2.13;;
14316;SDS011;7242;50.858;6.586;2022-07-23T16:29:45;2.73;;;1.93;;
14316;SDS011;7242;50.858;6.586;2022-07-23T16:32:47;2.97;;;2.10;;
14316;SDS011;7242;50.858;6.586;2022-07-23T16:35:47;3.07;;;2.00;;
14316;SDS011;7242;50.858;6.586;2022-07-23T16:38:48;4.43;;;2.10;;
14316;SDS011;7242;50.858;6.586;2022-07-23T16:41:49;2.60;;;2.10;;
14316;SDS011;7242;50.858;6.586;2022-07-23T16:44:50;2.87;;;2.10;;
14316;SDS011;7242;50.858;6.586;2022-07-23T16:47:51;3.07;;;2.13;;
14316;SDS011;7242;50.858;6.586;2022-07-23T16:50:52;1.83;;;1.70;;
14316;SDS011;7242;50.858;6.586;2022-07-23T16:53:52;4.30;;;2.13;;
14316;SDS011;7242;50.858;6.586;2022-07-23T16:56:55;2.37;;;2.17;;
14316;SDS011;7242;50.858;6.586;2022-07-23T16:59:57;2.07;;;1.87;;
14316;SDS011;7242;50.858;6.586;2022-07-23T17:02:58;4.50;;;2.30;;
14316;SDS011;7242;50.858;6.586;2022-07-23T17:05:58;2.77;;;2.40;;
14316;SDS011;7242;50.858;6.586;2022-07-23T17:08:59;3.13;;;2.27;;
14316;SDS011;7242;50.858;6.586;2022-07-23T17:12:01;3.43;;;2.23;;
14316;SDS011;7242;50.858;6.586;2022-07-23T17:15:03;3.03;;;2.30;;
14316;SDS011;7242;50.858;6.586;2022-07-23T17:18:04;3.13;;;2.10;;
14316;SDS011;7242;50.858;6.586;2022-07-23T17:21:05;2.37;;;2.03;;
14316;SDS011;7242;50.858;6.586;2022-07-23T17:24:06;2.90;;;2.17;;
14316;SDS011;7242;50.858;6.586;2022-07-23T17:27:07;3.40;;;2.27;;
14316;SDS011;7242;50.858;6.586;2022-07-23T17:30:08;3.47;;;2.07;;
14316;SDS011;7242;50.858;6.586;2022-07-23T17:33:10;2.37;;;2.10;;
14316;SDS011;7242;50.858;6.586;2022-07-23T17:36:10;3.83;;;2.30;;
14316;SDS011;7242;50.858;6.586;2022-07-23T17:39:11;4.23;;;2.10;;
14316;SDS011;7242;50.858;6.586;2022-07-23T17:42:12;3.73;;;2.23;;
14316;SDS011;7242;50.858;6.586;2022-07-23T17:45:13;3.93;;;2.37;;
14316;SDS011;7242;50.858;6.586;2022-07-23T17:48:19;2.57;;;2.10;;
14316;SDS011;7242;50.858;6.586;2022-07-23T17:51:20;2.87;;;1.87;;
14316;SDS011;7242;50.858;6.586;2022-07-23T17:54:21;2.43;;;2.23;;
14316;SDS011;7242;50.858;6.586;2022-07-23T17:57:23;2.97;;;2.10;;
14316;SDS011;7242;50.858;6.586;2022-07-23T18:00:25;2.90;;;2.60;;
14316;SDS011;7242;50.858;6.586;2022-07-23T18:03:29;2.40;;;1.97;;
14316;SDS011;7242;50.858;6.586;2022-07-23T18:06:30;3.63;;;2.10;;
14316;SDS011;7242;50.858;6.586;2022-07-23T18:09:31;2.00;;;1.80;;
14316;SDS011;7242;50.858;6.586;2022-07-23T18:12:32;3.10;;;2.03;;
14316;SDS011;7242;50.858;6.586;2022-07-23T18:15:33;3.43;;;2.30;;
14316;SDS011;7242;50.858;6.586;2022-07-23T18:18:35;2.80;;;2.07;;
14316;SDS011;7242;50.858;6.586;2022-07-23T18:21:36;3.20;;;2.20;;
14316;SDS011;7242;50.858;6.586;2022-07-23T18:24:37;2.97;;;2.20;;
14316;SDS011;7242;50.858;6.586;2022-07-23T18:27:38;2.50;;;2.03;;
14316;SDS011;7242;50.858;6.586;2022-07-23T18:30:40;3.40;;;2.33;;
14316;SDS011;7242;50.858;6.586;2022-07-23T18:33:41;2.37;;;2.13;;
14316;SDS011;7242;50.858;6.586;2022-07-23T18:36:42;2.60;;;2.10;;
14316;SDS011;7242;50.858;6.586;2022-07-23T18:39:43;3.63;;;2.33;;
14316;SDS011;7242;50.858;6.586;2022-07-23T18:42:44;2.57;;;2.30;;
14316;SDS011;7242;50.858;6.586;2022-07-23T18:45:46;4.33;;;2.60;;
14316;SDS011;7242;50.858;6.586;2022-07-23T18:48:47;2.53;;;2.33;;
14316;SDS011;7242;50.858;6.586;2022-07-23T18:51:48;3.90;;;2.73;;
14316;SDS011;7242;50.858;6.586;2022-07-23T18:54:48;3.83;;;2.53;;
14316;SDS011;7242;50.858;6.586;2022-07-23T18:57:49;2.73;;;2.53;;
14316;SDS011;7242;50.858;6.586;2022-07-23T19:00:50;3.13;;;2.47;;
14316;SDS011;7242;50.858;6.586;2022-07-23T19:03:51;2.93;;;2.33;;